Time;durP1;ratioP1;P1;durP2;ratioP2;P2;SDS_P1;SDS_P2;PMS_P1;PMS_P2;Temp;Humidity;BMP_temperature;BMP_pressure;BME280_temperature;BME280_humidity;BME280_pressure;Samples;Min_cycle;Max_cycle;Signal;HPM_P1;HPM_P2
2022/02/12 00:00:58;;;;;;;31.67;21.17;;;5.30;1.00;;;;;;5093370;28;20202;-87
2022/02/12 00:03:25;;;;;;;22.37;18.93;;;5.20;1.00;;;;;;5092711;28;20294;-86
2022/02/12 00:05:52;;;;;;;32.67;20.43;;;5.20;1.00;;;;;;5092903;28;20691;-79
2022/02/12 00:08:19;;;;;;;31.67;20.07;;;5.10;1.00;;;;;;5091808;28;20750;-81
2022/02/12 00:10:46;;;;;;;31.07;25.03;;;5.10;1.00;;;;;;5092321;28;20260;-81
2022/02/12 00:13:13;;;;;;;34.70;25.27;;;5.10;1.00;;;;;;5092295;28;20205;-84
2022/02/12 00:15:43;;;;;;;26.27;20.70;;;5.10;1.00;;;;;;5091836;28;20197;-84
2022/02/12 00:18:10;;;;;;;25.23;19.43;;;5.10;1.00;;;;;;5092223;28;20250;-85
2022/02/12 00:20:38;;;;;;;25.67;19.87;;;5.00;1.00;;;;;;5092647;28;20664;-82
2022/02/12 00:23:06;;;;;;;26.47;20.33;;;4.80;1.00;;;;;;5092589;28;20712;-84
2022/02/12 00:25:33;;;;;;;25.00;19.47;;;4.80;1.00;;;;;;5092397;28;20259;-79
2022/02/12 00:28:00;;;;;;;31.50;18.97;;;4.90;1.00;;;;;;5091534;28;20637;-78
2022/02/12 00:30:28;;;;;;;26.13;19.90;;;5.00;1.00;;;;;;5091948;28;20204;-79
2022/02/12 00:32:57;;;;;;;27.80;18.97;;;5.00;1.00;;;;;;5091854;28;20205;-79
2022/02/12 00:35:24;;;;;;;23.70;16.63;;;5.00;1.00;;;;;;5091736;28;20206;-80
2022/02/12 00:37:51;;;;;;;26.00;18.67;;;4.90;1.00;;;;;;5091518;28;20205;-79
2022/02/12 00:40:22;;;;;;;25.50;18.33;;;5.00;1.00;;;;;;5091081;28;20201;-79
2022/02/12 00:42:49;;;;;;;23.33;18.67;;;4.90;1.00;;;;;;5091388;28;20324;-77
2022/02/12 00:45:16;;;;;;;21.30;17.10;;;4.90;1.00;;;;;;5091103;28;20202;-79
2022/02/12 00:47:43;;;;;;;23.27;17.57;;;4.90;1.00;;;;;;5091117;28;20201;-78
2022/02/12 00:50:11;;;;;;;29.17;20.37;;;4.90;1.00;;;;;;5091035;28;20730;-79
2022/02/12 00:52:38;;;;;;;25.67;18.93;;;4.70;1.00;;;;;;5091237;28;20266;-78
2022/02/12 00:55:07;;;;;;;23.30;18.27;;;4.60;1.00;;;;;;5091001;28;20206;-78
2022/02/12 00:57:34;;;;;;;24.23;17.57;;;4.70;1.00;;;;;;5091048;28;20255;-78
2022/02/12 01:00:01;;;;;;;19.27;17.17;;;4.60;1.00;;;;;;5091194;28;20259;-79
2022/02/12 01:02:28;;;;;;;28.50;19.30;;;4.50;1.00;;;;;;5091097;28;20209;-78
2022/02/12 01:04:55;;;;;;;26.03;20.37;;;4.40;1.00;;;;;;5091546;28;20198;-78
2022/02/12 01:07:24;;;;;;;25.57;20.67;;;4.30;1.00;;;;;;5090800;28;20554;-78
2022/02/12 01:09:51;;;;;;;27.43;19.17;;;4.20;1.00;;;;;;5091100;28;20256;-82
2022/02/12 01:12:18;;;;;;;24.00;18.50;;;4.20;1.00;;;;;;5090024;28;20690;-81
2022/02/12 01:14:45;;;;;;;23.67;20.53;;;4.20;1.00;;;;;;5091290;28;20258;-82
2022/02/12 01:17:12;;;;;;;28.13;21.40;;;4.10;1.00;;;;;;5090817;28;20258;-82
2022/02/12 01:19:39;;;;;;;22.17;18.73;;;4.10;1.00;;;;;;5091472;28;20205;-81
2022/02/12 01:22:07;;;;;;;28.90;19.00;;;4.10;1.00;;;;;;5091120;28;20605;-82
2022/02/12 01:24:35;;;;;;;24.30;19.37;;;4.10;1.00;;;;;;5091298;28;20274;-81
2022/02/12 01:27:03;;;;;;;24.97;19.10;;;4.10;1.00;;;;;;5093177;28;20336;-79
2022/02/12 01:29:30;;;;;;;26.07;19.53;;;3.90;1.00;;;;;;5095264;28;20197;-81
2022/02/12 01:32:03;;;;;;;27.33;19.03;;;3.90;1.00;;;;;;5095720;28;20632;-80
2022/02/12 01:34:32;;;;;;;25.10;18.63;;;3.90;1.00;;;;;;5095344;28;20205;-81
2022/02/12 01:36:59;;;;;;;26.27;18.63;;;3.90;1.00;;;;;;5095596;28;20201;-77
2022/02/12 01:39:26;;;;;;;25.73;18.80;;;3.90;1.00;;;;;;5094787;28;20212;-76
2022/02/12 01:41:54;;;;;;;26.13;19.13;;;4.00;1.00;;;;;;5094748;28;20674;-78
2022/02/12 01:44:29;;;;;;;23.20;18.53;;;4.00;1.00;;;;;;5094258;28;20328;-77
2022/02/12 01:46:56;;;;;;;28.20;20.20;;;4.00;1.00;;;;;;5095077;28;20703;-79
2022/02/12 01:49:23;;;;;;;23.63;18.67;;;4.10;1.00;;;;;;5094229;28;20613;-79
2022/02/12 01:51:51;;;;;;;28.13;19.10;;;4.10;1.00;;;;;;5094656;28;20251;-79
2022/02/12 01:54:18;;;;;;;24.23;18.40;;;4.00;1.00;;;;;;5093986;28;20210;-79
2022/02/12 01:56:46;;;;;;;25.47;18.53;;;4.10;1.00;;;;;;5094425;28;20205;-79
2022/02/12 01:59:15;;;;;;;25.30;18.17;;;4.00;1.00;;;;;;5093987;28;20258;-79
2022/02/12 02:01:42;;;;;;;26.33;19.87;;;4.00;1.00;;;;;;5094502;28;20256;-79
2022/02/12 02:04:09;;;;;;;28.57;19.37;;;4.00;1.00;;;;;;5093698;28;20233;-78
2022/02/12 02:06:37;;;;;;;30.10;20.07;;;4.00;1.00;;;;;;5094520;28;20202;-79
2022/02/12 02:09:06;;;;;;;23.60;18.27;;;4.00;1.00;;;;;;5094319;28;20201;-81
2022/02/12 02:11:33;;;;;;;23.73;18.80;;;4.00;1.00;;;;;;5094728;28;20215;-81
2022/02/12 02:14:00;;;;;;;31.13;17.77;;;4.00;1.00;;;;;;5094854;28;20232;-82
2022/02/12 02:16:29;;;;;;;26.07;17.73;;;4.00;1.00;;;;;;5094974;28;20201;-81
2022/02/12 02:18:56;;;;;;;35.23;20.57;;;4.00;1.00;;;;;;5094799;28;20620;-81
2022/02/12 02:21:24;;;;;;;27.50;20.77;;;3.80;1.00;;;;;;5094068;28;20205;-82
2022/02/12 02:23:53;;;;;;;27.67;19.90;;;3.80;1.00;;;;;;5094402;28;20229;-81
2022/02/12 02:26:21;;;;;;;25.70;19.03;;;3.80;1.00;;;;;;5094379;28;20206;-82
2022/02/12 02:28:48;;;;;;;24.17;17.60;;;3.90;1.00;;;;;;5094269;28;20266;-81
2022/02/12 02:31:15;;;;;;;24.73;18.40;;;3.80;1.00;;;;;;5093496;28;20205;-79
2022/02/12 02:33:42;;;;;;;24.83;16.83;;;3.80;1.00;;;;;;5094073;28;20202;-79
2022/02/12 02:36:10;;;;;;;20.67;16.33;;;3.70;1.00;;;;;;5093657;28;20202;-78
2022/02/12 02:38:37;;;;;;;19.23;15.37;;;3.70;1.00;;;;;;5092953;28;20205;-79
2022/02/12 02:41:06;;;;;;;18.60;13.60;;;3.40;1.00;;;;;;5093462;28;20205;-78
2022/02/12 02:43:33;;;;;;;19.70;15.43;;;3.40;1.00;;;;;;5093348;28;20229;-77
2022/02/12 02:46:00;;;;;;;21.63;15.57;;;3.50;1.00;;;;;;5093701;28;20201;-78
2022/02/12 02:48:27;;;;;;;19.17;15.70;;;3.50;1.00;;;;;;5094213;28;20241;-78
2022/02/12 02:56:25;;;;;;;27.90;16.30;;;3.50;1.00;;;;;;5093243;28;20192;-77
2022/02/12 02:58:55;;;;;;;24.53;16.27;;;3.50;1.00;;;;;;5093210;28;20205;-77
2022/02/12 03:01:24;;;;;;;21.37;15.33;;;3.50;1.00;;;;;;5092985;28;20308;-78
2022/02/12 03:03:53;;;;;;;23.83;16.30;;;3.70;1.00;;;;;;5093154;28;20232;-78
2022/02/12 03:06:21;;;;;;;22.87;16.83;;;4.00;1.00;;;;;;5092870;28;20201;-76
2022/02/12 03:08:49;;;;;;;26.13;16.77;;;4.00;1.00;;;;;;5093161;28;20206;-80
2022/02/12 03:11:17;;;;;;;23.73;16.03;;;4.00;1.00;;;;;;5092821;28;20251;-81
2022/02/12 03:13:47;;;;;;;23.23;15.23;;;4.20;1.00;;;;;;5093316;28;20205;-79
2022/02/12 03:16:14;;;;;;;29.27;15.97;;;4.20;1.00;;;;;;5093264;28;20202;-84
2022/02/12 03:18:43;;;;;;;21.83;16.07;;;3.60;1.00;;;;;;5093722;28;20201;-84
2022/02/12 03:21:10;;;;;;;25.53;16.37;;;3.40;1.00;;;;;;5092677;28;20264;-79
2022/02/12 03:23:38;;;;;;;34.30;18.37;;;3.10;1.00;;;;;;5093141;28;20241;-80
2022/02/12 03:26:05;;;;;;;25.50;14.67;;;3.00;1.00;;;;;;5092507;28;20210;-78
2022/02/12 03:28:33;;;;;;;28.03;16.33;;;3.10;1.00;;;;;;5092640;28;20202;-76
2022/02/12 03:31:01;;;;;;;27.53;16.17;;;3.00;1.00;;;;;;5092551;28;20611;-76
2022/02/12 03:33:28;;;;;;;24.93;15.60;;;3.20;1.00;;;;;;5078661;28;20213;-84
2022/02/12 03:35:55;;;;;;;27.93;15.30;;;3.20;1.00;;;;;;5073211;28;20205;-78
2022/02/12 03:38:24;;;;;;;34.87;16.47;;;3.00;1.00;;;;;;5072483;28;20259;-81
2022/02/12 03:40:54;;;;;;;24.97;16.03;;;2.90;12.30;;;;;;5072911;28;20208;-86
2022/02/12 03:43:21;;;;;;;26.13;15.87;;;3.20;75.50;;;;;;5072159;28;20575;-77
2022/02/12 03:45:48;;;;;;;21.80;15.77;;;3.40;96.60;;;;;;5072678;28;20206;-79
2022/02/12 03:48:16;;;;;;;27.60;18.67;;;3.80;99.90;;;;;;5072322;28;20202;-78
2022/02/12 03:50:44;;;;;;;28.33;19.40;;;3.80;99.90;;;;;;5072396;28;20206;-81
2022/02/12 03:53:11;;;;;;;25.33;17.43;;;3.70;42.40;;;;;;5072221;28;20210;-82
2022/02/12 03:55:39;;;;;;;28.40;18.77;;;3.80;8.30;;;;;;5072646;28;20210;-80
2022/02/12 03:58:08;;;;;;;28.43;15.70;;;3.90;1.00;;;;;;5072181;28;20250;-84
2022/02/12 04:00:35;;;;;;;24.93;15.93;;;3.50;1.00;;;;;;5072522;28;20206;-83
2022/02/12 04:03:02;;;;;;;25.43;16.53;;;3.50;1.00;;;;;;5072167;28;20688;-73
2022/02/12 04:05:31;;;;;;;23.37;16.40;;;3.70;1.00;;;;;;5072634;28;20265;-73
2022/02/12 04:07:59;;;;;;;35.63;16.80;;;3.80;1.00;;;;;;5072777;28;20198;-81
2022/02/12 04:10:26;;;;;;;27.00;16.50;;;3.80;1.00;;;;;;5072119;28;20260;-82
2022/02/12 04:12:53;;;;;;;23.43;14.27;;;3.90;1.00;;;;;;5072518;28;20279;-82
2022/02/12 04:15:21;;;;;;;26.40;17.43;;;3.90;1.00;;;;;;5071735;28;20202;-80
2022/02/12 04:17:49;;;;;;;30.67;14.87;;;4.00;1.00;;;;;;5072088;28;20751;-79
2022/02/12 04:20:17;;;;;;;25.97;15.43;;;3.90;1.00;;;;;;5071368;28;20206;-81
2022/02/12 04:22:46;;;;;;;21.47;14.20;;;4.00;1.00;;;;;;5071748;28;20202;-80
2022/02/12 04:25:15;;;;;;;25.67;15.43;;;4.20;1.00;;;;;;5071116;28;20237;-75
2022/02/12 04:27:43;;;;;;;23.33;14.80;;;4.20;1.00;;;;;;5071449;28;20206;-75
2022/02/12 04:30:12;;;;;;;27.73;15.53;;;4.30;1.00;;;;;;5071491;28;20267;-80
2022/02/12 04:32:40;;;;;;;28.23;14.63;;;4.30;1.00;;;;;;5071472;28;20228;-78
2022/02/12 04:35:08;;;;;;;27.47;16.17;;;4.30;1.00;;;;;;5071108;28;20213;-80
2022/02/12 04:37:36;;;;;;;24.17;13.73;;;4.30;1.00;;;;;;5071523;28;20210;-80
2022/02/12 04:40:06;;;;;;;27.40;15.50;;;4.30;1.00;;;;;;5070624;28;20202;-80
2022/02/12 04:42:33;;;;;;;18.83;13.70;;;4.40;1.00;;;;;;5071463;28;20202;-81
2022/02/12 04:45:00;;;;;;;31.43;13.67;;;4.40;1.00;;;;;;5071388;28;20275;-79
2022/02/12 04:47:27;;;;;;;31.73;14.30;;;4.00;1.00;;;;;;5071496;28;20198;-81
2022/02/12 04:49:54;;;;;;;28.93;15.17;;;3.90;1.00;;;;;;5071401;28;20232;-80
2022/02/12 04:52:22;;;;;;;28.90;14.37;;;4.00;1.00;;;;;;5070940;28;20346;-80
2022/02/12 04:54:49;;;;;;;23.03;12.57;;;4.00;1.00;;;;;;5071083;28;20404;-79
2022/02/12 04:57:17;;;;;;;32.20;12.33;;;4.10;1.00;;;;;;5071148;28;20202;-78
2022/02/12 04:59:45;;;;;;;39.10;13.33;;;3.40;1.00;;;;;;5071478;28;20206;-80
2022/02/12 05:02:12;;;;;;;30.90;13.30;;;3.10;1.00;;;;;;5070162;28;20202;-77
2022/02/12 05:04:39;;;;;;;28.63;13.40;;;3.30;99.90;;;;;;5071131;28;20234;-75
2022/02/12 05:07:06;;;;;;;26.83;15.10;;;3.20;99.90;;;;;;5070820;28;20205;-80
2022/02/12 05:09:35;;;;;;;40.63;15.30;;;3.70;99.90;;;;;;5071151;28;20213;-82
2022/02/12 05:12:03;;;;;;;21.20;13.67;;;3.30;99.90;;;;;;5071117;28;20202;-71
2022/02/12 05:14:32;;;;;;;24.93;14.30;;;3.70;99.90;;;;;;5071329;28;20202;-80
2022/02/12 05:17:00;;;;;;;25.67;14.63;;;3.90;99.90;;;;;;5071979;28;20202;-79
2022/02/12 05:19:27;;;;;;;29.43;13.83;;;3.80;99.90;;;;;;5070958;28;20202;-79
2022/02/12 05:21:54;;;;;;;33.13;14.80;;;3.70;99.90;;;;;;5070778;28;20598;-80
2022/02/12 05:24:21;;;;;;;26.87;14.30;;;3.80;99.90;;;;;;5070659;28;20252;-78
2022/02/12 05:26:48;;;;;;;26.53;14.57;;;3.80;99.90;;;;;;5070963;28;20202;-79
2022/02/12 05:29:15;;;;;;;26.43;13.53;;;3.90;99.80;;;;;;5080529;28;20197;-78
2022/02/12 05:31:44;;;;;;;24.30;14.20;;;3.80;29.00;;;;;;5096371;28;20202;-77
2022/02/12 05:34:11;;;;;;;23.93;13.60;;;4.00;10.10;;;;;;5103181;28;20201;-78
2022/02/12 05:36:38;;;;;;;26.20;12.57;;;4.10;1.00;;;;;;5103683;28;20223;-79
2022/02/12 05:39:06;;;;;;;25.57;12.33;;;4.10;1.00;;;;;;5110678;28;20205;-77
2022/02/12 05:41:33;;;;;;;24.17;12.23;;;4.00;1.00;;;;;;5110926;28;20205;-78
2022/02/12 05:44:00;;;;;;;22.30;12.57;;;4.00;1.00;;;;;;5110685;28;20352;-77
2022/02/12 05:46:27;;;;;;;27.27;13.70;;;4.10;1.00;;;;;;5109165;28;20208;-84
2022/02/12 05:48:55;;;;;;;23.67;12.67;;;4.10;1.00;;;;;;5104906;28;20212;-80
2022/02/12 05:51:22;;;;;;;16.83;12.20;;;4.00;1.00;;;;;;5090627;28;20209;-76
2022/02/12 05:53:50;;;;;;;15.53;11.17;;;3.90;1.00;;;;;;5090860;28;20277;-79
2022/02/12 05:56:17;;;;;;;20.63;12.23;;;3.70;1.00;;;;;;5101521;28;20618;-74
2022/02/12 05:58:44;;;;;;;22.50;11.87;;;3.90;1.00;;;;;;5095048;28;20205;-75
2022/02/12 06:01:11;;;;;;;17.17;11.13;;;3.90;1.00;;;;;;5095386;28;20266;-78
2022/02/12 06:03:38;;;;;;;15.47;11.53;;;4.00;1.00;;;;;;5101629;28;20205;-74
2022/02/12 06:06:07;;;;;;;22.33;12.60;;;3.60;1.00;;;;;;5102091;28;20254;-77
2022/02/12 06:08:34;;;;;;;15.17;11.30;;;3.80;1.00;;;;;;5110240;28;20205;-76
2022/02/12 06:11:03;;;;;;;21.60;12.40;;;3.70;1.00;;;;;;5110935;28;20261;-82
2022/02/12 06:13:30;;;;;;;15.60;11.27;;;3.70;1.00;;;;;;5092347;28;20201;-78
2022/02/12 06:15:57;;;;;;;18.10;12.77;;;3.80;1.00;;;;;;5104950;28;20633;-72
2022/02/12 06:18:24;;;;;;;17.37;12.70;;;3.60;1.00;;;;;;5106317;28;20209;-73
2022/02/12 06:20:51;;;;;;;14.97;11.90;;;3.70;1.00;;;;;;5097416;28;20205;-69
2022/02/12 06:23:20;;;;;;;13.37;10.33;;;3.80;1.00;;;;;;5107099;28;20197;-72
2022/02/12 06:25:48;;;;;;;20.63;12.20;;;3.70;1.00;;;;;;5113861;28;20271;-70
2022/02/12 06:28:15;;;;;;;13.63;11.40;;;3.10;1.00;;;;;;5113848;27;20209;-72
2022/02/12 06:30:42;;;;;;;19.57;12.40;;;3.20;1.00;;;;;;5110681;28;20254;-73
2022/02/12 06:33:09;;;;;;;18.87;12.40;;;3.20;1.00;;;;;;5092530;28;20247;-72
2022/02/12 06:35:36;;;;;;;17.03;11.80;;;3.10;1.00;;;;;;5093514;28;20259;-74
2022/02/12 06:38:03;;;;;;;19.43;11.77;;;2.80;1.00;;;;;;5092529;28;20201;-73
2022/02/12 06:40:32;;;;;;;20.27;13.10;;;2.90;1.00;;;;;;5097065;28;20627;-73
2022/02/12 06:43:01;;;;;;;25.47;12.67;;;2.80;1.00;;;;;;5101940;28;20250;-80
2022/02/12 06:45:28;;;;;;;50.37;15.57;;;2.90;1.00;;;;;;5103450;28;20229;-78
2022/02/12 06:47:55;;;;;;;18.13;13.10;;;3.00;1.00;;;;;;5097312;28;20220;-76
2022/02/12 06:50:22;;;;;;;26.93;13.83;;;3.20;1.00;;;;;;5093065;28;20801;-78
2022/02/12 06:52:49;;;;;;;17.33;12.43;;;3.30;10.10;;;;;;5091070;28;20677;-77
2022/02/12 06:55:16;;;;;;;15.93;12.07;;;3.30;1.00;;;;;;5092754;28;20617;-79
2022/02/12 06:57:44;;;;;;;16.20;13.33;;;3.30;1.00;;;;;;5092820;28;20198;-71
2022/02/12 07:00:12;;;;;;;17.37;13.53;;;3.30;1.00;;;;;;5097024;28;20205;-81
2022/02/12 07:02:39;;;;;;;29.73;24.47;;;3.00;1.00;;;;;;5093277;28;20208;-77
2022/02/12 07:05:07;;;;;;;21.40;14.40;;;3.10;1.00;;;;;;5092664;28;20298;-78
2022/02/12 07:07:44;;;;;;;17.03;14.90;;;3.50;1.00;;;;;;5093220;28;20251;-82
2022/02/12 07:10:11;;;;;;;17.27;12.97;;;3.60;1.00;;;;;;5110217;28;20574;-76
2022/02/12 07:12:38;;;;;;;20.07;12.50;;;3.50;1.00;;;;;;5095026;28;20673;-79
2022/02/12 07:15:08;;;;;;;16.20;11.87;;;3.20;1.00;;;;;;5072539;28;20253;-79
2022/02/12 07:17:38;;;;;;;18.60;12.43;;;3.00;1.00;;;;;;5082953;28;20209;-79
2022/02/12 07:20:07;;;;;;;18.97;13.40;;;3.10;1.00;;;;;;5092918;28;20571;-80
2022/02/12 07:22:34;;;;;;;33.73;28.77;;;3.30;1.00;;;;;;5103771;28;20254;-82
2022/02/12 07:25:01;;;;;;;25.80;21.17;;;3.70;1.00;;;;;;5099979;28;20274;-73
2022/02/12 07:27:30;;;;;;;21.80;17.10;;;3.90;1.00;;;;;;5111645;28;20606;-74
2022/02/12 07:29:57;;;;;;;22.77;16.23;;;4.10;1.00;;;;;;5113606;28;20211;-81
2022/02/12 07:32:25;;;;;;;18.40;13.60;;;4.10;1.00;;;;;;5105216;27;20209;-71
2022/02/12 07:34:52;;;;;;;16.77;12.03;;;4.10;1.00;;;;;;5104084;28;20261;-70
2022/02/12 07:37:19;;;;;;;16.40;12.60;;;4.20;1.00;;;;;;5102378;28;20209;-83
2022/02/12 07:39:46;;;;;;;27.20;21.63;;;4.40;1.00;;;;;;5092802;28;20209;-82
2022/02/12 07:42:13;;;;;;;23.77;13.40;;;4.00;1.00;;;;;;5094301;28;20197;-74
2022/02/12 07:44:40;;;;;;;18.13;12.50;;;4.00;1.00;;;;;;5112109;28;20257;-78
2022/02/12 07:47:07;;;;;;;20.57;13.80;;;4.00;1.00;;;;;;5095073;28;20251;-74
2022/02/12 07:49:36;;;;;;;21.50;16.43;;;4.20;1.00;;;;;;5100534;28;20695;-78
2022/02/12 07:52:03;;;;;;;26.50;17.40;;;4.40;1.00;;;;;;5092889;28;20258;-70
2022/02/12 07:54:31;;;;;;;17.30;12.73;;;4.30;1.00;;;;;;5090315;28;20220;-70
2022/02/12 07:56:59;;;;;;;15.63;12.80;;;4.30;1.00;;;;;;5089535;28;20617;-70
2022/02/12 07:59:26;;;;;;;15.73;10.83;;;4.50;1.00;;;;;;5097265;28;20564;-73
2022/02/12 08:01:53;;;;;;;18.17;11.57;;;4.50;1.00;;;;;;5110539;28;20201;-76
2022/02/12 08:04:20;;;;;;;12.93;10.33;;;4.30;1.00;;;;;;5111904;28;20213;-70
2022/02/12 08:09:33;;;;;;;15.87;12.33;;;3.40;1.00;;;;;;5108664;28;20639;-72
2022/02/12 08:12:13;;;;;;;15.67;10.97;;;3.60;1.00;;;;;;5090896;28;20259;-72
2022/02/12 08:14:41;;;;;;;13.17;10.13;;;3.90;1.00;;;;;;5091440;28;20213;-70
2022/02/12 08:17:08;;;;;;;13.20;9.97;;;3.50;1.00;;;;;;5090377;28;20233;-71
2022/02/12 08:19:35;;;;;;;14.13;9.73;;;3.60;1.00;;;;;;5091873;28;20209;-70
2022/02/12 08:22:04;;;;;;;11.10;9.27;;;3.50;1.00;;;;;;5091671;28;20262;-70
2022/02/12 08:24:31;;;;;;;12.40;10.33;;;3.40;1.00;;;;;;5091277;28;20677;-74
2022/02/12 08:26:58;;;;;;;13.47;9.77;;;3.80;1.00;;;;;;5091720;28;20234;-69
2022/02/12 08:29:28;;;;;;;10.20;9.20;;;3.40;1.00;;;;;;5090663;28;20306;-74
2022/02/12 08:31:56;;;;;;;10.33;8.83;;;3.60;1.00;;;;;;5091517;28;20209;-69
2022/02/12 08:34:23;;;;;;;9.77;7.67;;;3.70;1.00;;;;;;5089819;28;20689;-70
2022/02/12 08:36:51;;;;;;;10.67;8.40;;;3.70;1.00;;;;;;5090755;28;20214;-80
2022/02/12 08:39:19;;;;;;;12.20;7.53;;;3.80;1.00;;;;;;5091030;28;20598;-75
2022/02/12 08:41:47;;;;;;;11.83;7.40;;;3.80;1.00;;;;;;5091497;28;20584;-75
2022/02/12 08:44:14;;;;;;;9.40;8.07;;;3.60;1.00;;;;;;5090879;28;20220;-74
2022/02/12 08:46:41;;;;;;;8.47;7.43;;;3.80;1.00;;;;;;5089474;28;20291;-74
2022/02/12 08:49:08;;;;;;;9.00;7.30;;;3.70;1.00;;;;;;5090221;28;20255;-71
2022/02/12 08:51:37;;;;;;;11.03;8.40;;;3.70;1.00;;;;;;5087864;28;20661;-76
2022/02/12 08:54:05;;;;;;;11.43;7.37;;;3.70;1.00;;;;;;5091618;28;20235;-73
2022/02/12 08:56:35;;;;;;;8.50;7.30;;;4.40;1.00;;;;;;5099498;28;20208;-79
2022/02/12 08:59:02;;;;;;;9.17;7.63;;;4.80;1.00;;;;;;5089525;28;20235;-71
2022/02/12 09:01:29;;;;;;;11.73;7.37;;;4.60;1.00;;;;;;5104270;28;20255;-70
2022/02/12 09:03:56;;;;;;;9.00;8.10;;;4.50;1.00;;;;;;5099535;28;20213;-71
2022/02/12 09:06:24;;;;;;;7.43;6.57;;;4.40;1.00;;;;;;5090550;28;20233;-71
2022/02/12 09:08:52;;;;;;;8.20;7.37;;;5.00;1.00;;;;;;5090929;28;20626;-70
2022/02/12 09:11:19;;;;;;;7.47;6.70;;;5.20;1.00;;;;;;5090851;28;20250;-70
2022/02/12 09:13:49;;;;;;;7.10;6.13;;;5.00;1.00;;;;;;5089502;28;20202;-71
2022/02/12 09:16:17;;;;;;;7.23;6.10;;;4.50;1.00;;;;;;5089889;28;20258;-71
2022/02/12 09:18:44;;;;;;;7.83;6.63;;;5.10;1.00;;;;;;5090780;28;20250;-71
2022/02/12 09:21:12;;;;;;;7.17;6.47;;;5.70;1.00;;;;;;5090310;28;20275;-70
2022/02/12 09:23:39;;;;;;;7.87;7.07;;;5.00;1.00;;;;;;5090591;28;20208;-70
2022/02/12 09:26:07;;;;;;;8.80;6.23;;;5.40;1.00;;;;;;5090429;28;20286;-71
2022/02/12 09:28:34;;;;;;;7.63;6.53;;;6.20;1.00;;;;;;5090664;28;20261;-70
2022/02/12 09:31:02;;;;;;;6.83;5.90;;;6.90;1.00;;;;;;5090684;28;20733;-70
2022/02/12 09:33:29;;;;;;;6.63;5.80;;;7.10;1.00;;;;;;5090872;28;20201;-70
2022/02/12 09:35:56;;;;;;;6.87;6.07;;;7.70;1.00;;;;;;5090942;28;20621;-70
2022/02/12 09:38:23;;;;;;;8.70;6.23;;;8.20;1.00;;;;;;5090044;28;20245;-71
2022/02/12 09:40:51;;;;;;;9.80;6.63;;;8.60;1.00;;;;;;5086666;28;20235;-72
2022/02/12 09:43:20;;;;;;;7.63;6.10;;;7.30;1.00;;;;;;5090197;28;20205;-70
2022/02/12 09:46:05;;;;;;;6.77;5.67;;;7.60;1.00;;;;;;5090387;28;20582;-70
2022/02/12 09:48:34;;;;;;;7.07;5.63;;;7.90;1.00;;;;;;5092940;28;20275;-70
2022/02/12 09:51:01;;;;;;;8.33;6.67;;;8.00;1.00;;;;;;5094511;28;20288;-70
2022/02/12 09:53:29;;;;;;;6.53;5.73;;;8.90;1.00;;;;;;5094766;28;20653;-70
2022/02/12 09:55:57;;;;;;;5.90;5.23;;;9.60;1.00;;;;;;5094724;28;20214;-73
2022/02/12 09:58:24;;;;;;;7.47;6.23;;;10.00;1.00;;;;;;5093834;28;20210;-71
2022/02/12 10:00:51;;;;;;;6.83;6.13;;;11.00;1.00;;;;;;5094263;28;20201;-70
2022/02/12 10:03:19;;;;;;;6.03;5.17;;;11.60;1.00;;;;;;5093495;28;20247;-71
2022/02/12 10:05:50;;;;;;;6.50;5.80;;;11.30;1.00;;;;;;5094328;28;20233;-71
2022/02/12 10:08:18;;;;;;;5.53;5.03;;;11.90;1.00;;;;;;5093609;28;20567;-70
2022/02/12 10:10:47;;;;;;;6.07;5.50;;;13.00;1.00;;;;;;5094223;28;20206;-69
2022/02/12 10:13:15;;;;;;;7.15;5.65;;;12.20;1.00;;;;;;5093497;28;20255;-71
2022/02/12 10:15:44;;;;;;;6.28;5.68;;;13.60;1.00;;;;;;5093963;28;20202;-70
2022/02/12 10:18:11;;;;;;;6.63;5.18;;;12.30;1.00;;;;;;5093784;28;20205;-70
2022/02/12 10:20:41;;;;;;;6.70;5.65;;;12.90;1.00;;;;;;5093897;28;20205;-70
2022/02/12 10:23:11;;;;;;;7.32;5.97;;;13.30;1.00;;;;;;5093700;28;20206;-82
2022/02/12 10:25:41;;;;;;;6.75;5.72;;;13.50;1.00;;;;;;5093687;28;20704;-71
2022/02/12 10:28:10;;;;;;;7.20;6.50;;;11.80;1.00;;;;;;5092685;28;20202;-70
2022/02/12 10:30:37;;;;;;;6.80;5.38;;;12.70;1.00;;;;;;5092831;28;20232;-71
2022/02/12 10:33:06;;;;;;;6.82;4.97;;;11.90;1.00;;;;;;5093355;28;20741;-71
2022/02/12 10:35:34;;;;;;;5.97;5.38;;;12.50;1.00;;;;;;5093984;28;20201;-73
2022/02/12 10:38:04;;;;;;;6.32;5.28;;;13.50;1.00;;;;;;5093589;28;20206;-72
2022/02/12 10:40:33;;;;;;;5.65;5.15;;;12.20;1.00;;;;;;5093383;28;20251;-71
2022/02/12 10:43:00;;;;;;;7.30;5.47;;;9.60;1.00;;;;;;5093517;28;20201;-71
2022/02/12 10:45:29;;;;;;;6.93;5.47;;;9.10;1.00;;;;;;5093997;28;20205;-73
2022/02/12 10:47:57;;;;;;;7.03;5.53;;;9.40;1.00;;;;;;5093883;28;20203;-75
2022/02/12 10:50:27;;;;;;;7.57;5.13;;;9.10;1.00;;;;;;5092885;28;20202;-72
2022/02/12 10:52:56;;;;;;;5.93;5.27;;;9.20;1.00;;;;;;5092225;28;20256;-72
2022/02/12 10:55:36;;;;;;;6.07;5.10;;;9.10;1.00;;;;;;5082863;28;20228;-71
2022/02/12 10:58:05;;;;;;;7.13;4.50;;;9.30;1.00;;;;;;5092576;28;20296;-70
2022/02/12 11:00:34;;;;;;;6.20;4.53;;;9.30;1.00;;;;;;5092523;28;20246;-71
2022/02/12 11:03:05;;;;;;;4.93;4.37;;;9.60;1.00;;;;;;5093155;28;20201;-72
2022/02/12 11:05:34;;;;;;;5.27;3.80;;;9.50;1.00;;;;;;5093304;28;20205;-73
2022/02/12 11:08:03;;;;;;;4.00;3.33;;;9.90;1.00;;;;;;5093360;28;20206;-76
2022/02/12 11:10:32;;;;;;;4.03;3.07;;;9.80;1.00;;;;;;5096551;28;20205;-73
2022/02/12 11:12:59;;;;;;;4.40;2.80;;;10.10;1.00;;;;;;5101550;28;20717;-71
2022/02/12 11:15:28;;;;;;;6.07;3.70;;;10.20;1.00;;;;;;5107880;28;20205;-71
2022/02/12 11:17:56;;;;;;;3.70;3.33;;;10.10;1.00;;;;;;5099355;28;20324;-70
2022/02/12 11:20:24;;;;;;;2.97;2.13;;;10.30;1.00;;;;;;5112344;28;20702;-70
2022/02/12 11:23:26;;;;;;;3.53;2.57;;;10.20;1.00;;;;;;5112747;28;20201;-75
2022/02/12 11:25:55;;;;;;;3.73;2.07;;;10.40;1.00;;;;;;5112334;28;20235;-74
2022/02/12 11:28:28;;;;;;;4.57;2.70;;;10.60;1.00;;;;;;5111033;28;20277;-74
2022/02/12 11:31:17;;;;;;;4.90;2.73;;;10.90;1.00;;;;;;5113050;27;20205;-82
2022/02/12 11:34:06;;;;;;;3.13;2.40;;;11.10;1.00;;;;;;5113096;28;20667;-73
2022/02/12 11:36:34;;;;;;;3.07;2.20;;;10.80;1.00;;;;;;5110229;28;20205;-74
2022/02/12 11:39:07;;;;;;;4.13;2.33;;;10.80;1.00;;;;;;5092071;28;20227;-74
2022/02/12 11:41:36;;;;;;;3.63;2.70;;;11.00;1.00;;;;;;5092005;28;20209;-75
2022/02/12 11:44:04;;;;;;;2.37;2.13;;;11.20;1.00;;;;;;5092382;28;20285;-73
2022/02/12 11:47:02;;;;;;;4.87;3.13;;;11.20;1.00;;;;;;5092326;28;20692;-77
2022/02/12 11:49:30;;;;;;;3.10;2.47;;;11.10;1.00;;;;;;5092457;28;20669;-73
2022/02/12 11:51:58;;;;;;;4.40;2.63;;;11.50;1.00;;;;;;5092530;28;20206;-75
2022/02/12 11:55:03;;;;;;;2.70;2.47;;;11.60;1.00;;;;;;5090819;28;20205;-76
2022/02/12 11:57:45;;;;;;;2.70;1.60;;;11.50;1.00;;;;;;5107572;28;20240;-72
2022/02/12 12:00:34;;;;;;;2.63;2.30;;;11.80;1.00;;;;;;5093149;28;20228;-72
2022/02/12 12:03:06;;;;;;;2.63;1.60;;;12.00;1.00;;;;;;5102295;28;20274;-73
2022/02/12 12:05:33;;;;;;;2.70;1.83;;;11.80;1.00;;;;;;5098776;28;20198;-72
2022/02/12 12:08:15;;;;;;;5.87;2.60;;;11.60;1.00;;;;;;5105261;28;20271;-72
2022/02/12 12:11:13;;;;;;;4.00;2.30;;;11.90;1.00;;;;;;5109576;28;20635;-79
2022/02/12 12:13:43;;;;;;;3.73;2.40;;;11.90;1.00;;;;;;5104421;28;20247;-73
2022/02/12 12:16:23;;;;;;;6.47;2.83;;;12.00;1.00;;;;;;5091282;28;20308;-73
2022/02/12 12:18:51;;;;;;;4.07;2.40;;;11.90;1.00;;;;;;5091464;28;20209;-74
2022/02/12 12:21:18;;;;;;;2.73;1.53;;;12.00;1.00;;;;;;5091366;28;20580;-71
2022/02/12 12:23:55;;;;;;;7.60;1.60;;;11.70;1.00;;;;;;5091217;28;20205;-76
2022/02/12 12:26:34;;;;;;;6.17;1.87;;;12.00;1.00;;;;;;5090890;28;20739;-73
2022/02/12 12:32:02;;;;;;;2.93;2.00;;;11.80;1.00;;;;;;5091762;28;20226;-72
2022/02/12 12:34:30;;;;;;;4.57;2.30;;;12.10;1.00;;;;;;5091676;28;20247;-74
2022/02/12 12:36:57;;;;;;;3.17;2.40;;;12.00;1.00;;;;;;5091383;28;20217;-74
2022/02/12 12:39:33;;;;;;;5.33;2.00;;;12.00;1.00;;;;;;5090927;28;20209;-74
2022/02/12 12:42:01;;;;;;;5.20;2.40;;;12.20;1.00;;;;;;5087231;28;20204;-73
2022/02/12 12:44:31;;;;;;;2.90;1.45;;;12.70;1.00;;;;;;5090810;28;20746;-73
2022/02/12 12:47:00;;;;;;;4.27;2.20;;;12.60;1.00;;;;;;5092644;28;20237;-73
2022/02/12 12:49:33;;;;;;;2.23;1.47;;;12.50;1.00;;;;;;5094372;28;20205;-75
2022/02/12 12:52:00;;;;;;;5.07;1.90;;;12.80;1.00;;;;;;5103849;28;20236;-72
2022/02/12 12:54:29;;;;;;;1.87;1.47;;;12.40;1.00;;;;;;5086644;28;20212;-77
2022/02/12 12:56:57;;;;;;;4.57;1.70;;;12.30;1.00;;;;;;5086686;28;20292;-72
2022/02/12 12:59:24;;;;;;;1.87;1.40;;;12.50;1.00;;;;;;5081094;28;20267;-71
2022/02/12 13:02:04;;;;;;;6.13;1.77;;;12.40;1.00;;;;;;5098951;28;20205;-73
2022/02/12 13:04:36;;;;;;;1.98;1.05;;;12.70;1.00;;;;;;5084967;28;20259;-74
2022/02/12 13:07:04;;;;;;;1.77;1.40;;;12.70;1.00;;;;;;5098269;28;20700;-72
2022/02/12 13:09:33;;;;;;;6.27;2.20;;;12.50;1.00;;;;;;5097589;28;20206;-76